Αρχική σελίδα
METAR-TAF:

METAR-TAF

Αεροδρόμια :

Λιμπρβίλ, Γκαμπόν

γεωγραφικό πλάτος: 00-27N, γεωγραφικό μήκος: 009-25E, υψόμετρο: 12 μ

Παρών καιρός

Η αναφορά έγινε 33 λεπτά πριν, στις 21:00 UTC
Άνεμος 6 kt από ΝΔ, μεταβλητός μεταξύ Ν και Δ
Θερμοκρασία 26°C
Υγρασία 84%
Πίεση 1013 hPa
Ορατότητα 10 χλμ και άνω
Λίγα νέφη σε ύψος 1400 πόδια

METAR: FOOL 232100Z 22006KT 190V270 9999 FEW014 26/23 Q1013 NOSIG

Χρόνος: 22:33 (21:33 UTC)

Πρόγνωση Καιρού

Η αναφορά έγινε 4 ώρες και 33 λεπτά πριν, στις 17:00 UTC
Η πρόγνωση ισχύει από τις 23 στις 18 UTC έως τις 24 στις 24 UTC
Άνεμος 7 kt από Ν/ΝΔ
Ορατότητα 10 χλμ και άνω
Διάσπαρτα νέφη σε ύψος 1200 πόδια
Αρκετά νέφη σε ύψος 3000 πόδια

TAF: FOOL 231700Z 2318/2424 20007KT 9999 SCT012 BKN030

Μετεωρολογικές αναφορές και προγνώσεις για περισσότερα από 4000 αεροδρόμια (δελτία METAR και TAF).

Οι διαθέσιμοι σταθμοί απεικονίζονται στο χάρτη με κίτρινες και κόκκινες κουκκίδες.

Μετακινήστε το ποντίκι πάνω από τις κουκκίδες για να δείτε το όνομα του σταθμού.

Στη συνέχεια, κάντε κλικ για να δείτε τις μετεωρολογικές αναφορές και τις προγνώσεις καιρού.

Για να αλλάξετε το χάρτη: κάντε κλικ στα πράσινα κουμπιά με τον μαύρο σταυρό για να ζουμάρετε, στο πράσινο κουμπί με την παύλα για να αφαιρέσετε το ζουμ ή στα πράσινα βέλη για να αντιπαραβάλλετε χάρτες.


METAR-TAF: